createdAt,value
2023-01-08T00:02:53.587Z,3.46
2023-01-08T00:06:10.087Z,3.47
2023-01-08T00:09:13.242Z,3.47
2023-01-08T00:12:47.757Z,3.46
2023-01-08T00:16:18.316Z,3.50
2023-01-08T00:19:21.831Z,3.53
2023-01-08T00:22:49.806Z,3.56
2023-01-08T00:26:15.734Z,3.63
2023-01-08T00:29:27.277Z,3.69
2023-01-08T00:32:36.803Z,3.77
2023-01-08T00:35:45.474Z,3.82
2023-01-08T00:38:50.544Z,3.86
2023-01-08T00:41:55.495Z,3.90
2023-01-08T00:45:09.814Z,3.97
2023-01-08T00:48:13.808Z,4.05
2023-01-08T00:51:30.616Z,4.13
2023-01-08T00:54:35.929Z,4.20
2023-01-08T00:57:46.672Z,4.23
2023-01-08T01:00:49.681Z,4.30
2023-01-08T01:04:12.967Z,4.35
2023-01-08T01:07:38.363Z,4.38
2023-01-08T01:11:26.248Z,4.39
2023-01-08T01:14:49.466Z,4.38
2023-01-08T01:17:52.568Z,4.34
2023-01-08T01:21:02.525Z,4.31
2023-01-08T01:24:13.256Z,4.28
2023-01-08T01:27:41.162Z,4.26
2023-01-08T01:30:57.032Z,4.26
2023-01-08T01:34:17.464Z,4.22
2023-01-08T01:37:45.296Z,4.20
2023-01-08T01:40:48.481Z,4.19
2023-01-08T01:43:53.274Z,4.19
2023-01-08T01:47:28.072Z,4.20
2023-01-08T01:50:51.793Z,4.18
2023-01-08T01:53:56.155Z,4.14
2023-01-08T01:57:01.395Z,4.11
2023-01-08T02:00:17.583Z,4.08
2023-01-08T02:03:24.274Z,4.09
2023-01-08T02:07:09.000Z,4.13
2023-01-08T02:10:46.661Z,4.20
2023-01-08T02:15:18.699Z,4.33
2023-01-08T02:18:48.671Z,4.38
2023-01-08T02:22:35.334Z,4.45
2023-01-08T02:26:18.769Z,4.50
2023-01-08T02:29:28.743Z,4.52
2023-01-08T02:32:51.945Z,4.53
2023-01-08T02:36:17.164Z,4.52
2023-01-08T02:39:45.061Z,4.51
2023-01-08T02:43:17.649Z,4.49
2023-01-08T02:46:35.319Z,4.48
2023-01-08T02:55:58.122Z,4.50
2023-01-08T02:59:09.199Z,4.53
2023-01-08T03:02:13.481Z,4.55
2023-01-08T03:05:28.788Z,4.56
2023-01-08T03:08:38.093Z,4.55
2023-01-08T03:12:01.302Z,4.50
2023-01-08T03:15:15.811Z,4.48
2023-01-08T03:18:34.184Z,4.46
2023-01-08T03:21:47.109Z,4.41
2023-01-08T03:24:59.249Z,4.38
2023-01-08T03:28:16.104Z,4.34
2023-01-08T03:31:36.538Z,4.27
2023-01-08T03:34:42.949Z,4.21
2023-01-08T03:38:13.915Z,4.11
2023-01-08T03:41:29.825Z,4.00
2023-01-08T03:44:33.025Z,3.93
2023-01-08T03:47:47.346Z,3.83
2023-01-08T03:50:53.860Z,3.76
2023-01-08T03:54:01.375Z,3.72
2023-01-08T03:57:05.642Z,3.68
2023-01-08T04:03:06.329Z,3.68
2023-01-08T04:07:29.653Z,3.73
2023-01-08T04:10:44.519Z,3.74
2023-01-08T04:13:48.459Z,3.73
2023-01-08T04:16:59.300Z,3.73
2023-01-08T04:20:33.290Z,3.74
2023-01-08T04:24:33.738Z,3.74
2023-01-08T04:27:53.313Z,3.75
2023-01-08T04:30:57.231Z,3.77
2023-01-08T04:34:20.392Z,3.77
2023-01-08T04:37:24.776Z,3.76
2023-01-08T04:40:35.555Z,3.76
2023-01-08T04:43:43.620Z,3.77
2023-01-08T04:47:02.809Z,3.77
2023-01-08T04:50:08.162Z,3.73
2023-01-08T04:53:13.960Z,3.68
2023-01-08T04:58:26.067Z,3.60
2023-01-08T05:01:33.237Z,3.54
2023-01-08T05:04:37.166Z,3.48
2023-01-08T05:15:13.080Z,3.33
2023-01-08T05:18:16.511Z,3.34
2023-01-08T05:21:37.305Z,3.33
2023-01-08T05:24:40.314Z,3.30
2023-01-08T05:27:45.257Z,3.29
2023-01-08T05:31:20.493Z,3.30
2023-01-08T05:34:35.863Z,3.30
2023-01-08T05:37:39.341Z,3.28
2023-01-08T05:41:10.740Z,3.27
2023-01-08T05:44:18.200Z,3.26
2023-01-08T05:47:30.766Z,3.26
2023-01-08T05:50:44.796Z,3.26
2023-01-08T05:53:56.072Z,3.25
2023-01-08T05:57:06.810Z,3.21
2023-01-08T06:00:52.527Z,3.18
2023-01-08T06:04:04.362Z,3.19
2023-01-08T06:07:07.698Z,3.22
2023-01-08T06:10:11.296Z,3.27
2023-01-08T06:13:19.439Z,3.28
2023-01-08T06:16:24.319Z,3.26
2023-01-08T06:19:31.310Z,3.23
2023-01-08T06:22:55.804Z,3.18
2023-01-08T06:26:57.938Z,3.15
2023-01-08T06:31:07.009Z,3.16
2023-01-08T06:35:15.771Z,3.15
2023-01-08T06:39:03.278Z,3.15
2023-01-08T06:42:23.223Z,3.17
2023-01-08T06:45:29.397Z,3.20
2023-01-08T06:50:40.100Z,3.24
2023-01-08T06:53:44.483Z,3.27
2023-01-08T06:56:53.953Z,3.37
2023-01-08T06:59:59.868Z,3.49
2023-01-08T07:03:07.247Z,3.56
2023-01-08T07:06:22.015Z,3.60
2023-01-08T07:09:24.773Z,3.64
2023-01-08T07:15:25.853Z,3.73
2023-01-08T07:19:03.818Z,3.82
2023-01-08T07:22:12.461Z,3.93
2023-01-08T07:25:17.299Z,4.09
2023-01-08T07:28:30.592Z,4.28
2023-01-08T07:31:37.990Z,4.46
2023-01-08T07:34:51.010Z,4.68
2023-01-08T07:38:03.652Z,4.88
2023-01-08T07:41:08.682Z,5.09
2023-01-08T07:44:50.576Z,5.31
2023-01-08T07:47:52.104Z,5.55
2023-01-08T07:50:54.056Z,5.81
2023-01-08T07:53:56.425Z,6.07
2023-01-08T07:56:58.090Z,6.27
2023-01-08T08:00:02.875Z,6.46
2023-01-08T08:03:08.668Z,6.62
2023-01-08T08:06:10.754Z,6.77
2023-01-08T08:09:59.940Z,6.95
2023-01-08T08:13:05.340Z,7.10
2023-01-08T08:16:18.012Z,7.24
2023-01-08T08:19:23.779Z,7.39
2023-01-08T08:23:23.613Z,7.46
2023-01-08T08:27:26.891Z,7.56
2023-01-08T08:30:42.574Z,7.60
2023-01-08T08:33:47.965Z,7.64
2023-01-08T08:36:53.291Z,7.68
2023-01-08T08:39:58.747Z,7.72
2023-01-08T08:43:06.781Z,7.76
2023-01-08T08:46:27.518Z,7.79
2023-01-08T08:49:34.525Z,7.80
2023-01-08T08:52:39.025Z,7.80
2023-01-08T08:56:05.502Z,7.79
2023-01-08T09:02:51.670Z,7.73
2023-01-08T09:06:02.847Z,7.72
2023-01-08T09:09:07.724Z,7.70
2023-01-08T09:12:15.142Z,7.67
2023-01-08T09:15:25.981Z,7.63
2023-01-08T09:18:32.906Z,7.58
2023-01-08T09:21:44.414Z,7.53
2023-01-08T09:24:51.468Z,7.50
2023-01-08T09:28:13.300Z,7.47
2023-01-08T09:31:34.801Z,7.46
2023-01-08T09:34:59.347Z,7.51
2023-01-08T09:38:03.411Z,7.62
2023-01-08T09:41:55.650Z,7.81
2023-01-08T09:45:32.308Z,8.01
2023-01-08T09:54:32.156Z,8.54
2023-01-08T09:59:05.279Z,8.84
2023-01-08T10:08:14.984Z,10.00
2023-01-08T10:12:50.760Z,10.30
2023-01-08T10:17:35.293Z,10.51
2023-01-08T10:21:40.768Z,10.74
2023-01-08T10:25:36.692Z,10.71
2023-01-08T10:30:16.795Z,10.65
2023-01-08T10:34:32.727Z,10.73
2023-01-08T10:39:33.020Z,10.73
2023-01-08T10:43:41.414Z,10.66
2023-01-08T10:47:48.138Z,10.67
2023-01-08T10:51:59.727Z,10.79
2023-01-08T10:55:41.606Z,10.76
2023-01-08T10:59:39.805Z,10.86
2023-01-08T11:03:07.562Z,11.07
2023-01-08T11:07:19.914Z,11.15
2023-01-08T11:10:51.085Z,11.23
2023-01-08T11:15:01.861Z,11.42
2023-01-08T11:19:16.586Z,12.00
2023-01-08T11:23:02.324Z,12.00
2023-01-08T11:27:06.727Z,11.92
2023-01-08T11:32:22.514Z,11.78
2023-01-08T11:36:34.569Z,11.53
2023-01-08T11:39:40.985Z,11.38
2023-01-08T11:44:03.823Z,11.18
2023-01-08T11:47:54.220Z,10.94
2023-01-08T11:52:07.578Z,10.95
2023-01-08T11:56:41.241Z,10.68
2023-01-08T12:00:41.026Z,10.44
2023-01-08T12:05:12.414Z,10.26
2023-01-08T12:09:14.840Z,10.11
2023-01-08T12:13:26.819Z,10.05
2023-01-08T12:17:17.727Z,10.03
2023-01-08T12:21:45.379Z,10.03
2023-01-08T12:25:59.036Z,10.04
2023-01-08T12:30:06.173Z,9.98
2023-01-08T12:33:52.152Z,9.89
2023-01-08T12:37:23.016Z,9.96
2023-01-08T12:41:47.470Z,10.15
2023-01-08T12:45:44.911Z,10.83
2023-01-08T12:49:29.207Z,10.99
2023-01-08T12:53:07.197Z,10.97
2023-01-08T12:57:34.919Z,10.95
2023-01-08T13:02:51.623Z,10.83
2023-01-08T13:06:17.637Z,10.69
2023-01-08T13:09:25.235Z,10.62
2023-01-08T13:12:53.832Z,10.54
2023-01-08T13:16:27.337Z,10.43
2023-01-08T13:24:41.238Z,10.32
2023-01-08T13:28:59.385Z,10.26
2023-01-08T13:33:28.506Z,10.18
2023-01-08T13:37:37.198Z,10.04
2023-01-08T13:41:27.467Z,9.96
2023-01-08T13:45:40.463Z,9.84
2023-01-08T13:50:08.411Z,9.68
2023-01-08T13:53:42.961Z,9.50
2023-01-08T13:57:43.667Z,9.36
2023-01-08T14:01:34.791Z,9.23
2023-01-08T14:05:39.251Z,9.14
2023-01-08T14:10:03.391Z,9.06
2023-01-08T14:14:27.664Z,8.98
2023-01-08T14:18:24.409Z,8.90
2023-01-08T14:22:49.429Z,8.82
2023-01-08T14:26:59.465Z,8.74
2023-01-08T14:31:03.109Z,8.65
2023-01-08T14:35:08.321Z,8.51
2023-01-08T14:38:53.856Z,8.37
2023-01-08T14:43:24.553Z,8.21
2023-01-08T14:47:50.214Z,8.05
2023-01-08T14:52:12.009Z,7.90
2023-01-08T14:56:48.143Z,7.77
2023-01-08T15:00:59.033Z,7.63
2023-01-08T15:05:20.988Z,7.50
2023-01-08T15:09:43.346Z,7.41
2023-01-08T15:14:07.290Z,7.27
2023-01-08T15:17:51.831Z,7.03
2023-01-08T15:22:20.629Z,6.78
2023-01-08T15:26:05.584Z,6.76
2023-01-08T15:29:55.497Z,6.81
2023-01-08T15:34:10.400Z,6.89
2023-01-08T15:37:16.405Z,7.03
2023-01-08T15:40:41.099Z,7.13
2023-01-08T15:44:16.019Z,7.26
2023-01-08T15:47:23.358Z,7.40
2023-01-08T15:50:48.871Z,7.51
2023-01-08T15:54:00.223Z,7.59
2023-01-08T15:57:23.085Z,7.65
2023-01-08T16:00:27.036Z,7.61
2023-01-08T16:03:34.742Z,7.49
2023-01-08T16:06:39.277Z,7.31
2023-01-08T16:09:42.737Z,7.23
2023-01-08T16:12:47.951Z,7.46
2023-01-08T16:15:51.945Z,7.67
2023-01-08T16:18:55.379Z,7.81
2023-01-08T16:22:00.602Z,7.91
2023-01-08T16:25:06.467Z,8.05
2023-01-08T16:28:09.963Z,8.15
2023-01-08T16:31:13.022Z,8.22
2023-01-08T16:35:15.865Z,8.34
2023-01-08T16:38:42.814Z,8.41
2023-01-08T16:42:45.985Z,8.46
2023-01-08T16:46:41.047Z,8.48
2023-01-08T16:50:26.900Z,8.53
2023-01-08T16:53:52.603Z,8.52
2023-01-08T16:57:16.883Z,8.57
2023-01-08T17:01:00.816Z,8.55
2023-01-08T17:04:06.001Z,8.59
2023-01-08T17:07:09.867Z,8.60
2023-01-08T17:10:45.398Z,8.58
2023-01-08T17:14:09.250Z,8.62
2023-01-08T17:17:54.171Z,8.60
2023-01-08T17:21:46.992Z,8.62
2023-01-08T17:25:26.554Z,8.63
2023-01-08T17:35:38.619Z,8.70
2023-01-08T17:39:22.628Z,8.76
2023-01-08T17:42:40.681Z,8.78
2023-01-08T17:45:48.768Z,8.78
2023-01-08T17:49:53.934Z,8.80
2023-01-08T17:53:09.019Z,8.81
2023-01-08T17:56:12.554Z,8.80
2023-01-08T17:59:18.388Z,8.80
2023-01-08T18:02:21.616Z,8.83
2023-01-08T18:05:25.223Z,8.83
2023-01-08T18:08:28.805Z,8.84
2023-01-08T18:11:33.446Z,8.85
2023-01-08T18:14:39.143Z,8.84
2023-01-08T18:17:42.445Z,8.78
2023-01-08T18:20:46.260Z,8.59
2023-01-08T18:24:09.685Z,8.43
2023-01-08T18:32:12.553Z,8.67
2023-01-08T18:39:55.583Z,8.19
2023-01-08T18:44:04.684Z,8.07
2023-01-08T18:48:19.488Z,7.98
2023-01-08T18:52:21.287Z,7.98
2023-01-08T18:56:33.608Z,7.93
2023-01-08T19:00:42.223Z,7.83
2023-01-08T19:04:22.451Z,7.74
2023-01-08T19:07:50.977Z,7.71
2023-01-08T19:11:20.375Z,7.85
2023-01-08T19:14:51.376Z,7.77
2023-01-08T19:18:03.138Z,7.69
2023-01-08T19:21:59.692Z,7.65
2023-01-08T19:25:43.079Z,7.64
2023-01-08T19:28:49.543Z,7.63
2023-01-08T19:34:03.155Z,7.62
2023-01-08T19:37:58.046Z,7.63
2023-01-08T19:42:03.880Z,7.62
2023-01-08T19:46:07.833Z,7.63
2023-01-08T19:49:13.181Z,7.63
2023-01-08T19:52:18.479Z,7.63
2023-01-08T19:55:22.348Z,7.65
2023-01-08T20:02:48.439Z,7.70
2023-01-08T20:06:37.074Z,7.72
2023-01-08T20:26:35.144Z,7.79
2023-01-08T20:30:54.313Z,7.79
2023-01-08T20:34:13.290Z,7.77
2023-01-08T20:37:52.030Z,7.75
2023-01-08T20:42:12.243Z,7.71
2023-01-08T20:45:52.288Z,7.69
2023-01-08T20:49:19.871Z,7.72
2023-01-08T20:53:04.836Z,7.76
2023-01-08T20:57:06.887Z,7.75
2023-01-08T21:01:14.403Z,7.72
2023-01-08T21:13:43.997Z,7.52
2023-01-08T21:18:19.051Z,7.44
2023-01-08T21:22:35.170Z,7.38
2023-01-08T21:26:16.633Z,7.32
2023-01-08T21:36:20.479Z,7.19
2023-01-08T21:39:58.381Z,7.14
2023-01-08T21:52:21.306Z,7.01
2023-01-08T21:59:58.462Z,6.93
2023-01-08T22:04:07.704Z,6.90
2023-01-08T22:07:59.788Z,6.88
2023-01-08T22:12:08.459Z,6.84
2023-01-08T22:16:16.865Z,6.80
2023-01-08T22:20:15.775Z,6.77
2023-01-08T22:24:05.753Z,6.73
2023-01-08T22:28:07.787Z,6.68
2023-01-08T22:31:54.868Z,6.61
2023-01-08T22:35:57.304Z,6.53
2023-01-08T22:40:04.783Z,6.43
2023-01-08T22:44:13.806Z,6.31
2023-01-08T22:52:23.770Z,6.03
2023-01-08T22:56:32.749Z,5.87
2023-01-08T23:00:27.468Z,5.72
2023-01-08T23:04:36.499Z,5.58
2023-01-08T23:08:59.629Z,5.45
2023-01-08T23:13:04.103Z,5.24
2023-01-08T23:16:53.827Z,5.05
2023-01-08T23:20:34.490Z,5.02
2023-01-08T23:24:33.699Z,4.86
2023-01-08T23:28:35.622Z,4.74
2023-01-08T23:33:05.185Z,4.55
2023-01-08T23:37:14.160Z,4.40
2023-01-08T23:49:04.222Z,4.18
2023-01-08T23:52:51.256Z,4.13
2023-01-08T23:56:59.954Z,4.12
